ADDS TAF Board (Experimental) INFO Settings
IDs: Format: Expanded Condensed

KDEN - Denver Intl, CO, US

Issued at 1946 UTC 25 Sep 2016
Updated at 2049 UTC 25 Sep 2016
Time1953Z 25/21Z 25/22Z 25/23Z 26/00Z 26/01Z 26/02Z 26/03Z 26/04Z 26/05Z 26/06Z 26/07Z 26/08Z 26/09Z
Type OBS PRVL PRVL PRVL PRVL PRVL PRVL PRVL PRVL PRVL PRVL PRVL PRVL PRVL
VIS 10 >6 >6 >6 >6 >6 >6 >6 >6 >6 >6 >6 >6 >6
CIG -- -- -- -- -- -- -- -- -- -- -- -- -- --
Cover FEW FEW FEW FEW FEW FEW FEW FEW FEW FEW SKC SKC SKC SKC
FltCat VFR VFR VFR VFR VFR VFR VFR VFR VFR VFR VFR VFR VFR VFR
WX -- -- -- -- -- -- -- -- -- -- -- -- -- --
WDir VRB 60 60 60 60 60 150 150 150 150 200 200 200 200
WSpd 0 6 6 6 6 6 9 9 9 9 9 9 9 9
WGst -- -- -- -- -- -- -- -- -- -- -- -- -- --
R07/25
XWnd VRB 3 3 3 3 3 -8 -8 -8 -8 -8 -8 -8 -8
HWnd VRB 5 5 5 5 5 5 5 5 5 -3 -3 -3 -3
R08/26
XWnd VRB 3 3 3 3 3 -8 -8 -8 -8 -9 -9 -9 -9
HWnd VRB 5 5 5 5 5 5 5 5 5 -3 -3 -3 -3
R16/34
XWnd VRB 5 5 5 5 5 5 5 5 5 -3 -3 -3 -3
HWnd VRB -3 -3 -3 -3 -3 8 8 8 8 9 9 9 9
R17/35
XWnd VRB 5 5 5 5 5 5 5 5 5 -3 -3 -3 -3
HWnd VRB -3 -3 -3 -3 -3 8 8 8 8 9 9 9 9

Raw TAF
KDEN 251946Z 2520/2624 06006KT P6SM FEW080 FEW140
  FM260200 15009KT P6SM FEW100
  FM260600 20009KT P6SM SKC
  FM261600 35007KT P6SM SKC


Raw METAR
KDEN 251953Z 00000KT 10SM FEW080 18/M01 A3039 RMK AO2 SLP254 T01781011
KDEN 251853Z 30006KT 10SM FEW080 FEW140 18/M01 A3043 RMK AO2 SLP261 T01831011
KDEN 251753Z VRB04KT 10SM FEW080 FEW140 16/M02 A3046 RMK AO2 SLP273 T01611017 10161 20050 58004

METAR Board
Radar Display
Forecast Discussion

TAF Board Legend

Potential Impact
Threat None Slight Moderate High
Visibility (sm) ≥5.1 5.1>X≥3 3>X≥1 <1
Ceiling (100 ft) ≥30.1 30.1>X≥10 10>X≥5 <5
Wind Speed (kt) <10 10≤X<20 20≤X<30 ≥30
Wind Gust (kt) <15 15≤X<25 25≤X<35 ≥35
Weather No Wx Reported VCTS,-TS,-FZRA,SN TS,FZRA +TS,+FZRA,+SN